createdAt,value
2018-12-17T00:02:14.767Z,25.90
2018-12-17T00:04:47.625Z,26.10
2018-12-17T00:07:20.640Z,25.32
2018-12-17T00:09:51.505Z,24.75
2018-12-17T00:12:22.342Z,25.17
2018-12-17T00:14:56.968Z,23.67
2018-12-17T00:17:28.353Z,24.10
2018-12-17T00:19:59.252Z,24.12
2018-12-17T00:22:30.170Z,22.75
2018-12-17T00:25:01.029Z,22.00
2018-12-17T00:27:32.553Z,22.58
2018-12-17T00:30:04.023Z,21.10
2018-12-17T00:32:35.480Z,21.10
2018-12-17T00:35:07.755Z,22.37
2018-12-17T00:37:38.798Z,21.17
2018-12-17T00:40:12.462Z,20.60
2018-12-17T00:42:43.895Z,20.97
2018-12-17T00:45:15.286Z,22.10
2018-12-17T00:47:46.198Z,21.45
2018-12-17T00:50:17.070Z,21.48
2018-12-17T00:52:47.973Z,19.55
2018-12-17T00:55:18.892Z,19.70
2018-12-17T00:57:49.870Z,20.48
2018-12-17T01:00:22.324Z,19.92
2018-12-17T01:02:53.274Z,20.57
2018-12-17T01:05:24.728Z,21.02
2018-12-17T01:07:55.650Z,22.00
2018-12-17T01:10:26.622Z,22.02
2018-12-17T01:12:57.587Z,23.00
2018-12-17T01:15:28.685Z,24.82
2018-12-17T01:17:59.615Z,27.25
2018-12-17T01:20:30.774Z,29.35
2018-12-17T01:23:01.702Z,22.93
2018-12-17T01:25:32.581Z,24.95
2018-12-17T01:28:03.453Z,22.37
2018-12-17T01:30:34.658Z,23.27
2018-12-17T01:33:05.530Z,19.12
2018-12-17T01:35:36.386Z,21.20
2018-12-17T01:38:07.322Z,17.77
2018-12-17T01:40:38.497Z,18.42
2018-12-17T01:43:09.412Z,17.87
2018-12-17T01:45:41.195Z,17.32
2018-12-17T01:48:12.030Z,17.10
2018-12-17T01:50:42.958Z,17.27
2018-12-17T01:53:13.869Z,16.02
2018-12-17T01:55:44.718Z,16.90
2018-12-17T01:58:15.638Z,17.73
2018-12-17T02:00:46.701Z,19.57
2018-12-17T02:03:17.616Z,17.95
2018-12-17T02:05:48.597Z,20.80
2018-12-17T02:08:19.439Z,22.10
2018-12-17T02:10:50.963Z,19.20
2018-12-17T02:13:21.870Z,19.25
2018-12-17T02:15:53.801Z,19.60
2018-12-17T02:18:24.691Z,17.77
2018-12-17T02:20:55.523Z,19.02
2018-12-17T02:23:26.464Z,15.98
2018-12-17T02:25:57.393Z,15.28
2018-12-17T02:28:28.254Z,13.13
2018-12-17T02:30:59.169Z,13.10
2018-12-17T02:33:30.110Z,13.22
2018-12-17T02:36:01.042Z,14.13
2018-12-17T02:38:31.899Z,14.45
2018-12-17T02:41:02.801Z,14.70
2018-12-17T02:43:33.971Z,13.28
2018-12-17T02:46:04.893Z,12.63
2018-12-17T02:48:35.755Z,12.45
2018-12-17T02:51:06.634Z,11.73
2018-12-17T02:53:38.411Z,13.00
2018-12-17T02:56:09.248Z,16.30
2018-12-17T02:58:43.940Z,15.10
2018-12-17T03:01:13.194Z,16.17
2018-12-17T03:03:44.289Z,17.00
2018-12-17T03:06:15.159Z,15.08
2018-12-17T03:08:46.102Z,14.45
2018-12-17T03:11:17.043Z,15.40
2018-12-17T03:13:47.902Z,14.43
2018-12-17T03:16:18.756Z,14.80
2018-12-17T03:18:49.674Z,14.33
2018-12-17T03:21:20.574Z,15.00
2018-12-17T03:23:52.568Z,15.55
2018-12-17T03:26:23.513Z,14.75
2018-12-17T03:28:54.351Z,15.43
2018-12-17T03:31:25.262Z,14.60
2018-12-17T03:33:56.196Z,14.40
2018-12-17T03:36:27.122Z,13.95
2018-12-17T03:38:57.977Z,14.10
2018-12-17T03:41:28.914Z,13.13
2018-12-17T03:43:59.861Z,13.35
2018-12-17T03:46:31.346Z,14.03
2018-12-17T03:49:02.525Z,13.85
2018-12-17T03:51:33.566Z,13.98
2018-12-17T03:54:05.449Z,15.98
2018-12-17T03:56:36.269Z,15.25
2018-12-17T03:59:07.123Z,13.90
2018-12-17T04:01:38.034Z,14.50
2018-12-17T04:04:08.996Z,13.05
2018-12-17T04:06:39.925Z,14.63
2018-12-17T04:09:10.878Z,13.78
2018-12-17T04:11:41.722Z,13.90
2018-12-17T04:14:12.981Z,13.53
2018-12-17T04:16:43.794Z,15.50
2018-12-17T04:19:14.740Z,13.10
2018-12-17T04:21:45.814Z,15.60
2018-12-17T04:24:17.431Z,13.38
2018-12-17T04:26:49.977Z,14.43
2018-12-17T04:29:20.842Z,13.88
2018-12-17T04:31:51.700Z,12.98
2018-12-17T04:34:22.817Z,14.35
2018-12-17T04:36:54.342Z,14.00
2018-12-17T04:39:25.213Z,15.18
2018-12-17T04:41:56.124Z,13.72
2018-12-17T04:44:27.076Z,13.03
2018-12-17T04:46:57.966Z,13.50
2018-12-17T04:49:29.590Z,14.93
2018-12-17T04:52:00.433Z,14.00
2018-12-17T04:54:31.722Z,14.60
2018-12-17T04:57:02.670Z,13.55
2018-12-17T04:59:34.460Z,13.85
2018-12-17T05:02:05.590Z,18.30
2018-12-17T05:04:37.755Z,14.55
2018-12-17T05:07:08.590Z,16.00
2018-12-17T05:09:39.440Z,13.98
2018-12-17T05:12:10.294Z,15.13
2018-12-17T05:14:42.337Z,14.35
2018-12-17T05:17:15.726Z,14.10
2018-12-17T05:19:46.655Z,16.00
2018-12-17T05:22:17.585Z,15.63
2018-12-17T05:24:48.547Z,15.63
2018-12-17T05:27:19.467Z,13.50
2018-12-17T05:29:50.394Z,14.05
2018-12-17T05:32:21.285Z,15.10
2018-12-17T05:34:52.133Z,14.65
2018-12-17T05:37:22.989Z,16.80
2018-12-17T05:39:53.941Z,15.55
2018-12-17T05:42:24.890Z,14.73
2018-12-17T05:44:55.751Z,14.78
2018-12-17T05:47:26.682Z,15.48
2018-12-17T05:49:57.533Z,14.15
2018-12-17T05:52:28.546Z,14.33
2018-12-17T05:54:59.468Z,14.63
2018-12-17T05:57:30.369Z,13.55
2018-12-17T06:00:01.337Z,13.83
2018-12-17T06:02:33.434Z,14.10
2018-12-17T06:05:05.488Z,14.75
2018-12-17T06:07:36.742Z,15.40
2018-12-17T06:10:08.572Z,27.60
2018-12-17T06:12:39.460Z,15.83
2018-12-17T06:15:11.198Z,19.87
2018-12-17T06:17:42.335Z,14.83
2018-12-17T06:20:13.207Z,14.63
2018-12-17T06:22:44.409Z,13.40
2018-12-17T06:25:15.352Z,13.08
2018-12-17T06:27:46.910Z,13.80
2018-12-17T06:30:17.762Z,13.75
2018-12-17T06:32:49.010Z,14.25
2018-12-17T06:35:19.844Z,24.57
2018-12-17T06:37:50.772Z,17.85
2018-12-17T06:40:21.739Z,14.15
2018-12-17T06:42:52.742Z,14.13
2018-12-17T06:45:23.308Z,16.17
2018-12-17T06:47:54.212Z,14.50
2018-12-17T06:50:25.117Z,15.32
2018-12-17T06:52:55.998Z,13.08
2018-12-17T06:55:26.859Z,13.83
2018-12-17T06:57:59.386Z,13.80
2018-12-17T07:00:30.837Z,14.93
2018-12-17T07:03:02.083Z,26.48
2018-12-17T07:05:32.989Z,22.67
2018-12-17T07:08:03.881Z,25.37
2018-12-17T07:10:34.761Z,17.48
2018-12-17T07:13:05.618Z,18.62
2018-12-17T07:15:36.664Z,34.08
2018-12-17T07:18:07.590Z,29.00
2018-12-17T07:20:39.269Z,31.30
2018-12-17T07:23:10.198Z,23.95
2018-12-17T07:25:41.447Z,18.17
2018-12-17T07:28:12.285Z,29.50
2018-12-17T07:30:43.934Z,15.50
2018-12-17T07:33:15.373Z,25.45
2018-12-17T07:35:46.824Z,15.32
2018-12-17T07:38:17.754Z,13.25
2018-12-17T07:40:49.342Z,14.23
2018-12-17T07:43:20.238Z,13.58
2018-12-17T07:45:53.558Z,13.15
2018-12-17T07:48:24.469Z,12.18
2018-12-17T07:50:55.440Z,15.75
2018-12-17T07:53:26.769Z,15.35
2018-12-17T07:55:57.818Z,15.50
2018-12-17T07:58:28.673Z,14.93
2018-12-17T08:01:00.329Z,16.82
2018-12-17T08:03:32.121Z,16.15
2018-12-17T08:06:03.632Z,18.15
2018-12-17T08:08:35.580Z,18.60
2018-12-17T08:11:07.046Z,18.82
2018-12-17T08:13:37.954Z,18.25
2018-12-17T08:16:08.898Z,20.62
2018-12-17T08:18:39.823Z,19.12
2018-12-17T08:21:11.296Z,19.15
2018-12-17T08:23:42.205Z,20.00
2018-12-17T08:26:13.174Z,27.17
2018-12-17T08:28:44.025Z,22.50
2018-12-17T08:31:14.987Z,22.37
2018-12-17T08:33:45.965Z,22.30
2018-12-17T08:36:16.889Z,22.30
2018-12-17T08:38:47.861Z,20.90
2018-12-17T08:41:18.709Z,20.62
2018-12-17T08:43:49.622Z,18.05
2018-12-17T08:46:20.559Z,18.20
2018-12-17T08:48:51.498Z,18.30
2018-12-17T08:51:22.353Z,17.45
2018-12-17T08:53:53.269Z,15.83
2018-12-17T08:56:24.214Z,17.15
2018-12-17T08:58:55.164Z,19.42
2018-12-17T09:01:26.339Z,18.37
2018-12-17T09:03:58.458Z,18.45
2018-12-17T09:06:29.331Z,17.82
2018-12-17T09:09:00.177Z,16.67
2018-12-17T09:11:31.033Z,18.23
2018-12-17T09:14:01.870Z,54.25
2018-12-17T09:16:32.729Z,20.70
2018-12-17T09:19:03.778Z,17.00
2018-12-17T09:21:34.627Z,43.50
2018-12-17T09:24:05.538Z,20.80
2018-12-17T09:26:37.308Z,17.73
2018-12-17T09:29:08.545Z,18.25
2018-12-17T09:31:39.486Z,22.80
2018-12-17T09:34:10.426Z,33.53
2018-12-17T09:36:41.290Z,21.55
2018-12-17T09:39:14.498Z,26.17
2018-12-17T09:41:47.870Z,20.50
2018-12-17T09:44:19.829Z,23.30
2018-12-17T09:46:55.918Z,25.12
2018-12-17T09:49:29.107Z,21.90
2018-12-17T09:51:59.959Z,19.20
2018-12-17T09:54:31.354Z,18.30
2018-12-17T09:57:02.300Z,17.15
2018-12-17T09:59:33.229Z,17.35
2018-12-17T10:02:04.162Z,15.75
2018-12-17T10:04:35.214Z,15.95
2018-12-17T10:07:05.798Z,14.80
2018-12-17T10:09:36.683Z,18.32
2018-12-17T10:12:07.595Z,14.23
2018-12-17T10:14:38.562Z,13.60
2018-12-17T10:17:09.482Z,14.13
2018-12-17T10:19:40.421Z,13.32
2018-12-17T10:22:11.340Z,12.30
2018-12-17T10:24:42.619Z,13.65
2018-12-17T10:27:13.473Z,12.82
2018-12-17T10:29:44.406Z,13.13
2018-12-17T10:32:14.955Z,11.40
2018-12-17T10:34:45.638Z,12.27
2018-12-17T10:37:16.452Z,12.43
2018-12-17T10:39:47.121Z,13.33
2018-12-17T10:42:17.818Z,12.83
2018-12-17T10:44:48.655Z,11.87
2018-12-17T10:47:19.469Z,11.33
2018-12-17T10:49:50.947Z,11.23
2018-12-17T10:52:21.606Z,10.60
2018-12-17T10:54:52.654Z,10.50
2018-12-17T10:57:23.809Z,11.13
2018-12-17T10:59:54.714Z,10.53
2018-12-17T11:05:20.552Z,10.13
2018-12-17T11:07:51.499Z,10.70
2018-12-17T11:10:22.506Z,10.20
2018-12-17T11:12:53.665Z,10.63
2018-12-17T11:15:24.282Z,9.80
2018-12-17T11:17:55.574Z,10.10
2018-12-17T11:20:27.298Z,10.20
2018-12-17T11:22:57.930Z,11.10
2018-12-17T11:25:28.577Z,9.73
2018-12-17T11:27:59.174Z,9.63
2018-12-17T11:30:30.025Z,10.43
2018-12-17T11:33:01.333Z,9.80
2018-12-17T11:35:32.051Z,10.60
2018-12-17T11:38:02.746Z,10.77
2018-12-17T11:40:33.586Z,10.27
2018-12-17T11:43:04.206Z,11.17
2018-12-17T11:45:35.596Z,9.50
2018-12-17T11:48:06.230Z,8.47
2018-12-17T11:50:37.034Z,9.73
2018-12-17T11:53:07.602Z,10.93
2018-12-17T11:55:38.202Z,19.10
2018-12-17T11:58:14.045Z,21.20
2018-12-17T12:00:53.869Z,13.43
2018-12-17T12:03:25.458Z,11.10
2018-12-17T12:05:56.061Z,10.27
2018-12-17T12:08:26.785Z,10.20
2018-12-17T12:10:57.962Z,10.20
2018-12-17T12:13:28.547Z,9.97
2018-12-17T12:15:59.157Z,11.50
2018-12-17T12:18:29.709Z,11.80
2018-12-17T12:21:00.311Z,12.43
2018-12-17T12:23:30.882Z,12.20
2018-12-17T12:26:01.835Z,13.63
2018-12-17T12:28:32.561Z,12.13
2018-12-17T12:31:03.198Z,12.23
2018-12-17T12:33:33.753Z,11.17
2018-12-17T12:36:04.607Z,13.57
2018-12-17T12:38:35.191Z,16.07
2018-12-17T12:41:06.145Z,16.20
2018-12-17T12:43:36.712Z,13.57
2018-12-17T12:46:07.397Z,12.87
2018-12-17T12:48:38.356Z,11.80
2018-12-17T12:51:09.046Z,11.50
2018-12-17T12:53:39.710Z,12.90
2018-12-17T12:56:10.878Z,14.57
2018-12-17T12:58:41.450Z,20.17
2018-12-17T13:01:12.107Z,17.93
2018-12-17T13:03:42.660Z,14.40
2018-12-17T13:06:13.230Z,16.90
2018-12-17T13:08:44.812Z,49.40
2018-12-17T13:11:15.442Z,27.40
2018-12-17T13:13:46.139Z,28.37
2018-12-17T13:16:16.774Z,26.07
2018-12-17T13:18:47.429Z,22.50
2018-12-17T13:21:18.246Z,17.97
2018-12-17T13:23:48.830Z,16.67
2018-12-17T13:26:19.443Z,16.50
2018-12-17T13:28:50.032Z,16.50
2018-12-17T13:31:20.617Z,14.57
2018-12-17T13:33:51.226Z,14.90
2018-12-17T13:36:21.819Z,14.70
2018-12-17T13:38:52.471Z,14.70
2018-12-17T13:41:23.081Z,15.43
2018-12-17T13:43:53.691Z,15.50
2018-12-17T13:46:25.178Z,14.23
2018-12-17T13:48:56.093Z,13.40
2018-12-17T13:51:31.858Z,13.03
2018-12-17T13:54:04.899Z,14.17
2018-12-17T13:56:35.747Z,13.27
2018-12-17T13:59:06.451Z,14.43
2018-12-17T14:01:37.496Z,15.40
2018-12-17T14:04:08.121Z,31.20
2018-12-17T14:06:38.680Z,22.20
2018-12-17T14:09:10.110Z,30.47
2018-12-17T14:11:40.710Z,22.30
2018-12-17T14:14:11.862Z,16.27
2018-12-17T14:16:47.599Z,14.63
2018-12-17T14:22:19.475Z,14.37
2018-12-17T14:24:50.140Z,14.60
2018-12-17T14:27:20.718Z,16.30
2018-12-17T14:29:51.377Z,16.20
2018-12-17T14:32:21.998Z,15.40
2018-12-17T14:34:52.664Z,15.13
2018-12-17T14:37:23.981Z,15.73
2018-12-17T14:39:54.614Z,15.00
2018-12-17T14:42:25.250Z,17.47
2018-12-17T14:44:55.794Z,16.90
2018-12-17T14:47:26.414Z,15.90
2018-12-17T14:49:57.024Z,17.20
2018-12-17T14:52:28.192Z,17.33
2018-12-17T14:54:58.800Z,16.93
2018-12-17T14:57:29.758Z,19.20
2018-12-17T15:00:00.361Z,19.20
2018-12-17T15:02:30.934Z,18.73
2018-12-17T15:05:01.523Z,15.87
2018-12-17T15:07:32.627Z,14.57
2018-12-17T15:10:03.724Z,19.60
2018-12-17T15:12:35.585Z,18.20
2018-12-17T15:15:09.630Z,21.03
2018-12-17T15:17:40.330Z,15.47
2018-12-17T15:20:12.395Z,14.40
2018-12-17T15:22:43.766Z,14.27
2018-12-17T15:25:14.496Z,15.70
2018-12-17T15:27:45.474Z,15.73
2018-12-17T15:30:16.326Z,15.50
2018-12-17T15:32:47.385Z,16.23
2018-12-17T15:35:18.022Z,14.53
2018-12-17T15:37:48.660Z,15.93
2018-12-17T15:40:19.246Z,15.03
2018-12-17T15:42:49.879Z,17.03
2018-12-17T15:45:20.450Z,23.30
2018-12-17T15:47:51.078Z,24.43
2018-12-17T15:50:21.687Z,25.53
2018-12-17T15:52:52.633Z,21.00
2018-12-17T15:55:24.029Z,18.20
2018-12-17T15:57:54.601Z,21.30
2018-12-17T16:00:25.677Z,20.30
2018-12-17T16:02:56.392Z,18.30
2018-12-17T16:05:27.944Z,16.33
2018-12-17T16:07:58.662Z,15.43
2018-12-17T16:10:29.387Z,14.70
2018-12-17T16:13:00.029Z,14.40
2018-12-17T16:15:31.118Z,14.40
2018-12-17T16:18:01.829Z,13.73
2018-12-17T16:20:32.433Z,14.93
2018-12-17T16:23:03.023Z,17.37
2018-12-17T16:25:33.685Z,19.33
2018-12-17T16:28:04.755Z,17.57
2018-12-17T16:30:36.070Z,17.33
2018-12-17T16:33:07.202Z,15.63
2018-12-17T16:35:39.775Z,16.67
2018-12-17T16:38:11.797Z,17.20
2018-12-17T16:40:46.630Z,16.60
2018-12-17T16:43:18.718Z,18.20
2018-12-17T16:45:50.145Z,16.63
2018-12-17T16:48:21.279Z,17.53
2018-12-17T16:50:51.985Z,18.97
2018-12-17T16:53:25.695Z,18.83
2018-12-17T16:55:57.529Z,19.77
2018-12-17T16:58:28.805Z,15.83
2018-12-17T17:00:59.962Z,16.33
2018-12-17T17:03:32.462Z,17.30
2018-12-17T17:06:03.726Z,16.93
2018-12-17T17:08:38.355Z,18.77
2018-12-17T17:11:09.617Z,20.70
2018-12-17T17:13:40.286Z,22.57
2018-12-17T17:16:12.777Z,22.87
2018-12-17T17:18:44.214Z,19.90
2018-12-17T17:21:15.807Z,21.33
2018-12-17T17:23:47.654Z,23.27
2018-12-17T17:26:19.786Z,19.93
2018-12-17T17:28:54.453Z,22.33
2018-12-17T17:31:26.755Z,43.57
2018-12-17T17:34:00.043Z,25.00
2018-12-17T17:36:33.512Z,19.50
2018-12-17T17:39:07.992Z,25.17
2018-12-17T17:41:43.541Z,22.00
2018-12-17T17:44:14.762Z,26.00
2018-12-17T17:46:46.134Z,18.83
2018-12-17T17:49:17.534Z,18.67
2018-12-17T17:51:50.137Z,18.97
2018-12-17T17:54:23.365Z,20.47
2018-12-17T17:56:54.786Z,21.00
2018-12-17T17:59:26.457Z,24.93
2018-12-17T18:01:59.213Z,27.17
2018-12-17T18:04:32.974Z,27.07
2018-12-17T18:07:05.609Z,25.97
2018-12-17T18:09:38.146Z,23.43
2018-12-17T18:12:09.435Z,23.50
2018-12-17T18:14:46.625Z,18.10
2018-12-17T18:17:19.264Z,15.77
2018-12-17T18:19:52.785Z,16.10
2018-12-17T18:22:24.797Z,16.77
2018-12-17T18:24:56.089Z,16.40
2018-12-17T18:27:29.718Z,26.30
2018-12-17T18:30:01.150Z,23.63
2018-12-17T18:32:34.310Z,23.50
2018-12-17T18:35:06.609Z,18.83
2018-12-17T18:37:38.925Z,20.37
2018-12-17T18:40:10.619Z,23.03
2018-12-17T18:42:43.144Z,20.93
2018-12-17T18:45:14.238Z,12.80
2018-12-17T18:47:47.473Z,13.47
2018-12-17T18:50:18.111Z,11.53
2018-12-17T18:52:49.815Z,12.07
2018-12-17T18:55:21.525Z,13.30
2018-12-17T18:57:54.101Z,12.23
2018-12-17T19:00:24.745Z,15.03
2018-12-17T19:02:55.521Z,27.90
2018-12-17T19:05:27.526Z,25.90
2018-12-17T19:07:59.973Z,26.10
2018-12-17T19:10:39.057Z,27.90
2018-12-17T19:13:09.814Z,28.80
2018-12-17T19:15:40.535Z,23.17
2018-12-17T19:18:11.289Z,30.07
2018-12-17T19:20:42.017Z,29.73
2018-12-17T19:23:12.670Z,30.67
2018-12-17T19:25:43.374Z,29.10
2018-12-17T19:28:14.546Z,24.27
2018-12-17T19:30:45.150Z,25.97
2018-12-17T19:33:16.107Z,26.90
2018-12-17T19:35:46.729Z,26.10
2018-12-17T19:38:18.793Z,26.23
2018-12-17T19:40:49.510Z,29.30
2018-12-17T19:43:20.748Z,29.00
2018-12-17T19:45:51.363Z,23.20
2018-12-17T19:48:22.212Z,20.63
2018-12-17T19:50:52.873Z,20.10
2018-12-17T19:53:23.720Z,23.60
2018-12-17T19:55:55.333Z,21.80
2018-12-17T19:58:26.099Z,19.87
2018-12-17T20:00:57.010Z,16.30
2018-12-17T20:03:27.817Z,18.70
2018-12-17T20:05:59.097Z,20.90
2018-12-17T20:08:29.734Z,20.30
2018-12-17T20:11:00.477Z,16.50
2018-12-17T20:13:31.115Z,17.30
2018-12-17T20:16:01.814Z,15.20
2018-12-17T20:18:33.914Z,12.30
2018-12-17T20:21:04.980Z,12.53
2018-12-17T20:23:35.665Z,13.63
2018-12-17T20:26:06.485Z,13.00
2018-12-17T20:28:37.255Z,16.10
2018-12-17T20:31:07.865Z,14.10
2018-12-17T20:33:38.470Z,20.00
2018-12-17T20:36:09.613Z,15.23
2018-12-17T20:38:40.576Z,15.80
2018-12-17T20:41:11.229Z,15.50
2018-12-17T20:43:41.854Z,15.43
2018-12-17T20:46:13.626Z,14.37
2018-12-17T20:48:44.539Z,16.50
2018-12-17T20:51:15.149Z,14.40
2018-12-17T20:53:45.762Z,12.03
2018-12-17T20:56:16.460Z,14.77
2018-12-17T20:58:48.231Z,18.77
2018-12-17T21:01:18.907Z,22.47
2018-12-17T21:03:49.654Z,22.10
2018-12-17T21:06:20.395Z,24.03
2018-12-17T21:08:51.078Z,24.23
2018-12-17T21:11:21.745Z,23.97
2018-12-17T21:13:52.333Z,24.60
2018-12-17T21:16:23.111Z,24.43
2018-12-17T21:18:53.739Z,25.00
2018-12-17T21:21:24.487Z,24.20
2018-12-17T21:23:55.210Z,24.80
2018-12-17T21:26:25.829Z,23.40
2018-12-17T21:28:56.491Z,24.00
2018-12-17T21:31:27.422Z,27.00
2018-12-17T21:33:58.139Z,23.57
2018-12-17T21:36:29.078Z,23.90
2018-12-17T21:39:00.600Z,22.40
2018-12-17T21:41:31.370Z,23.77
2018-12-17T21:44:02.090Z,13.37
2018-12-17T21:46:34.016Z,20.37
2018-12-17T21:49:05.499Z,22.40
2018-12-17T21:51:36.125Z,20.03
2018-12-17T21:54:06.783Z,18.80
2018-12-17T21:56:37.382Z,21.63
2018-12-17T21:59:08.351Z,23.83
2018-12-17T22:01:39.292Z,22.07
2018-12-17T22:04:10.843Z,22.50
2018-12-17T22:06:41.598Z,23.83
2018-12-17T22:09:12.385Z,23.00
2018-12-17T22:11:43.011Z,21.20
2018-12-17T22:14:13.642Z,20.13
2018-12-17T22:16:44.277Z,15.23
2018-12-17T22:19:14.986Z,24.27
2018-12-17T22:21:45.636Z,15.27
2018-12-17T22:24:16.678Z,16.47
2018-12-17T22:26:47.398Z,16.27
2018-12-17T22:29:18.080Z,16.07
2018-12-17T22:31:49.197Z,12.30
2018-12-17T22:34:19.818Z,11.23
2018-12-17T22:36:50.634Z,12.70
2018-12-17T22:39:22.316Z,10.37
2018-12-17T22:41:52.935Z,11.40
2018-12-17T22:44:23.874Z,10.90
2018-12-17T22:46:54.910Z,9.40
2018-12-17T22:49:25.754Z,13.03
2018-12-17T22:51:56.373Z,11.53
2018-12-17T22:54:27.014Z,11.73
2018-12-17T22:56:57.639Z,11.17
2018-12-17T22:59:28.277Z,13.50
2018-12-17T23:01:59.277Z,16.23
2018-12-17T23:04:29.941Z,17.70
2018-12-17T23:07:00.565Z,18.60
2018-12-17T23:09:48.004Z,16.83
2018-12-17T23:12:35.523Z,17.10
2018-12-17T23:15:23.050Z,19.07
2018-12-17T23:17:52.126Z,19.20
2018-12-17T23:20:25.229Z,18.83
2018-12-17T23:22:58.329Z,18.80
2018-12-17T23:25:30.703Z,17.37
2018-12-17T23:28:01.321Z,18.17
2018-12-17T23:30:32.420Z,18.50
2018-12-17T23:33:03.521Z,17.00
2018-12-17T23:35:34.157Z,17.00
2018-12-17T23:38:05.079Z,14.23
2018-12-17T23:40:35.824Z,13.93
2018-12-17T23:43:06.744Z,15.15
2018-12-17T23:45:37.385Z,15.60
2018-12-17T23:48:08.642Z,15.48
2018-12-17T23:50:39.265Z,14.93
2018-12-17T23:53:10.309Z,16.25
2018-12-17T23:55:41.013Z,13.03
2018-12-17T23:58:11.846Z,11.63
